Terminal Aerodrome Forecast
Issued by NWS

Home | Current Version | Previous Version | Text Only | Print | Product List | Glossary On
Versions: 1 2 3 4 5 6 7 8 9 10 11 12 13 14 15
000
FTUS41 KCLE 242335
TAFFDY
TAF
KFDY 242335Z 2500/2524 08007KT 3SM -SHRA OVC006
      TEMPO 2500/2504 1 1/2SM -SHRA OVC004
     FM250400 02004KT 2SM BR OVC004
     FM251500 35012KT P6SM OVC012
     FM252000 35012G18KT P6SM BKN035=

USA.gov is the U.S. government's official web portal to all federal, state and local government web resources and services.